Time;durP1;ratioP1;P1;durP2;ratioP2;P2;SDS_P1;SDS_P2;PMS_P1;PMS_P2;Temp;Humidity;BMP_temperature;BMP_pressure;BME280_temperature;BME280_humidity;BME280_pressure;Samples;Min_cycle;Max_cycle;Signal;HPM_P1;HPM_P2
2022/04/13 15:39:59;;;;;;;1.85;1.50;;;;;;;16.15;32.25;96647.16;5212623;23;20079;-64
2022/04/13 15:42:29;;;;;;;2.50;1.67;;;;;;;16.09;31.34;96645.72;4993742;28;20062;-64
2022/04/13 15:44:56;;;;;;;1.70;1.60;;;;;;;16.09;31.44;96648.38;4993786;28;20415;-64
2022/04/13 15:47:22;;;;;;;6.57;1.98;;;;;;;16.13;31.88;96649.88;4993744;28;20053;-63
2022/04/13 15:49:47;;;;;;;1.85;1.48;;;;;;;16.08;32.00;96649.31;4993837;28;20477;-64
2022/04/13 15:52:20;;;;;;;3.53;1.73;;;;;;;16.04;32.31;96651.28;4993720;28;20353;-64
2022/04/13 15:54:49;;;;;;;1.95;1.63;;;;;;;15.97;32.15;96644.66;4993660;28;20038;-64
2022/04/13 15:57:14;;;;;;;3.35;1.45;;;;;;;15.79;33.30;96650.03;4993702;28;20029;-63
2022/04/13 15:59:40;;;;;;;4.30;1.77;;;;;;;15.68;32.15;96651.59;4993753;28;20019;-64
2022/04/13 16:02:06;;;;;;;1.67;1.58;;;;;;;15.65;32.19;96657.88;4993712;28;20041;-63
2022/04/13 16:04:33;;;;;;;2.42;1.80;;;;;;;15.61;33.22;96658.97;4993667;28;20018;-63
2022/04/13 16:06:59;;;;;;;4.10;1.75;;;;;;;15.59;33.24;96656.44;4993600;28;20029;-63
2022/04/13 16:09:25;;;;;;;3.63;1.73;;;;;;;15.59;33.06;96659.06;4993584;28;20034;-65
2022/04/13 16:11:51;;;;;;;4.85;1.90;;;;;;;15.59;33.32;96663.50;4994220;28;20030;-64
2022/04/13 16:14:17;;;;;;;12.23;1.77;;;;;;;15.55;33.09;96657.56;4997657;28;20023;-64
2022/04/13 16:16:42;;;;;;;4.00;2.10;;;;;;;15.49;33.38;96660.53;4997497;28;20049;-64
2022/04/13 16:19:08;;;;;;;3.83;2.00;;;;;;;15.43;34.11;96664.34;4997608;28;20044;-64
2022/04/13 16:21:35;;;;;;;2.65;1.90;;;;;;;15.39;34.52;96671.56;4997419;28;20449;-64
2022/04/13 16:24:03;;;;;;;9.63;2.47;;;;;;;15.32;35.63;96661.47;4997398;28;20029;-65
2022/04/13 16:26:29;;;;;;;8.45;2.53;;;;;;;15.24;36.92;96675.06;4997380;28;20022;-64
2022/04/13 16:28:55;;;;;;;7.50;2.70;;;;;;;15.00;38.35;96675.47;4997300;28;20026;-65
2022/04/13 16:31:22;;;;;;;5.47;2.80;;;;;;;14.75;38.68;96676.75;4997413;28;20052;-64
2022/04/13 16:33:49;;;;;;;4.20;2.13;;;;;;;14.49;39.44;96677.19;4997166;28;20026;-64
2022/04/13 16:36:14;;;;;;;3.53;2.13;;;;;;;14.22;39.55;96682.06;4997080;28;20023;-63
2022/04/13 16:38:40;;;;;;;5.38;2.10;;;;;;;13.96;39.07;96682.44;4996768;28;20546;-64
2022/04/13 16:41:09;;;;;;;4.95;2.08;;;;;;;13.76;39.64;96686.91;4997014;28;20032;-62
2022/04/13 16:43:34;;;;;;;11.10;2.08;;;;;;;13.51;40.01;96681.97;4997095;28;20512;-64
2022/04/13 16:46:01;;;;;;;4.07;2.10;;;;;;;13.25;41.09;96695.38;4996953;28;20026;-65
2022/04/13 16:48:26;;;;;;;9.80;1.90;;;;;;;12.95;41.43;96695.03;4996906;28;20026;-64
2022/04/13 16:50:52;;;;;;;5.35;1.90;;;;;;;12.84;42.35;96698.97;4996953;28;20022;-64
2022/04/13 16:53:18;;;;;;;2.47;1.63;;;;;;;12.70;42.19;96710.09;4996712;28;20035;-65
2022/04/13 16:55:44;;;;;;;2.95;1.38;;;;;;;12.55;42.19;96711.59;4996731;28;20053;-65
2022/04/13 16:58:13;;;;;;;3.83;1.60;;;;;;;12.55;43.66;96710.78;4996832;28;20077;-64
2022/04/13 17:00:40;;;;;;;5.20;2.08;;;;;;;12.39;44.24;96708.78;4996663;28;20026;-65
2022/04/13 17:03:05;;;;;;;10.15;1.70;;;;;;;12.11;44.20;96715.22;4996591;28;20030;-65
2022/04/13 17:05:35;;;;;;;10.32;5.40;;;;;;;11.85;44.54;96723.19;4996522;28;20105;-65
2022/04/13 17:08:03;;;;;;;3.60;2.63;;;;;;;11.74;45.58;96726.22;4996465;28;20030;-65
2022/04/13 17:10:28;;;;;;;3.17;1.98;;;;;;;11.44;45.15;96725.69;4996602;28;20088;-64
2022/04/13 17:12:54;;;;;;;5.00;2.05;;;;;;;11.12;45.66;96732.09;4996555;28;20420;-64
2022/04/13 17:15:19;;;;;;;16.80;2.40;;;;;;;10.70;46.68;96733.59;4996561;28;20113;-64
2022/04/13 17:17:46;;;;;;;7.90;2.25;;;;;;;10.52;46.92;96734.22;4996434;28;20023;-63
2022/04/13 17:20:12;;;;;;;6.03;2.33;;;;;;;10.28;47.05;96734.97;4996339;28;20051;-64
2022/04/13 17:22:38;;;;;;;4.30;1.90;;;;;;;10.05;48.05;96748.81;4996334;28;20065;-64
2022/04/13 17:25:04;;;;;;;4.53;1.70;;;;;;;9.69;48.56;96740.31;4995133;28;20058;-65
2022/04/13 17:27:30;;;;;;;1.95;1.70;;;;;;;9.41;48.97;96746.41;4996326;28;20075;-64
2022/04/13 17:29:56;;;;;;;2.58;1.90;;;;;;;9.25;48.20;96752.97;4996166;28;20022;-63
2022/04/13 17:32:27;;;;;;;3.67;1.75;;;;;;;9.23;49.76;96755.63;4996082;28;20084;-64
2022/04/13 17:34:53;;;;;;;4.55;2.50;;;;;;;9.13;50.29;96756.81;4996075;28;20057;-64
2022/04/13 17:37:19;;;;;;;6.10;2.55;;;;;;;9.08;50.74;96764.75;4996063;28;20540;-64
2022/04/13 17:39:44;;;;;;;3.42;1.73;;;;;;;8.78;50.22;96764.72;4995701;28;20138;-64
2022/04/13 17:42:10;;;;;;;7.45;1.75;;;;;;;8.63;50.62;96773.78;4995918;28;20058;-64
2022/04/13 17:44:36;;;;;;;4.93;2.28;;;;;;;8.51;51.20;96773.19;4995873;28;20038;-64
2022/04/13 17:47:01;;;;;;;5.82;4.10;;;;;;;8.33;50.97;96778.00;4995964;28;20027;-64
2022/04/13 17:49:27;;;;;;;13.45;7.78;;;;;;;8.20;51.34;96785.28;4995826;28;20031;-63
2022/04/13 17:51:53;;;;;;;5.70;3.78;;;;;;;8.14;50.74;96788.03;4995808;28;20027;-64
2022/04/13 17:54:19;;;;;;;6.70;3.05;;;;;;;8.18;50.55;96791.41;4995722;28;20030;-64
2022/04/13 17:56:44;;;;;;;5.32;2.58;;;;;;;8.26;50.97;96789.47;4995660;28;20026;-64
2022/04/13 17:59:10;;;;;;;4.28;2.20;;;;;;;8.27;49.58;96787.69;4995741;28;20447;-64
2022/04/13 18:01:36;;;;;;;2.60;1.38;;;;;;;8.28;49.82;96786.84;4995581;28;20023;-64
2022/04/13 18:04:02;;;;;;;2.78;1.70;;;;;;;8.25;49.47;96797.34;4995676;28;20026;-64
2022/04/13 18:06:28;;;;;;;6.18;2.00;;;;;;;8.19;49.63;96790.53;4995406;28;20026;-64
2022/04/13 18:08:53;;;;;;;6.05;2.05;;;;;;;8.11;50.02;96798.53;4995321;28;20112;-64
2022/04/13 18:11:19;;;;;;;3.80;1.70;;;;;;;7.93;50.87;96795.47;4995436;28;20041;-64
2022/04/13 18:13:45;;;;;;;1.73;1.50;;;;;;;7.66;51.16;96794.34;4995409;28;20392;-64
2022/04/13 18:16:10;;;;;;;4.18;1.75;;;;;;;7.54;51.95;96798.94;4995394;28;20026;-65
2022/04/13 18:18:39;;;;;;;6.47;1.80;;;;;;;7.30;52.47;96798.56;4994093;28;20030;-64
2022/04/13 18:21:07;;;;;;;2.33;1.83;;;;;;;7.15;52.44;96807.53;4995294;28;20022;-64
2022/04/13 18:23:33;;;;;;;3.85;2.20;;;;;;;7.07;52.33;96805.09;4995133;28;20358;-65
2022/04/13 18:25:59;;;;;;;5.03;2.17;;;;;;;7.10;52.58;96814.56;4995230;28;20029;-65
2022/04/13 18:28:25;;;;;;;3.17;1.52;;;;;;;7.13;53.13;96816.28;4995039;28;20057;-65
2022/04/13 18:30:52;;;;;;;3.38;2.20;;;;;;;7.00;53.43;96816.50;4977796;28;20027;-64
2022/04/13 18:33:18;;;;;;;1.52;1.30;;;;;;;6.92;52.67;96821.84;4994999;28;20025;-64
2022/04/13 18:35:45;;;;;;;6.05;3.30;;;;;;;6.93;53.01;96825.31;4994638;28;20492;-64
2022/04/13 18:38:10;;;;;;;3.28;2.00;;;;;;;6.85;53.48;96828.03;4994904;28;20036;-64
2022/04/13 18:40:36;;;;;;;3.03;1.88;;;;;;;6.77;53.38;96828.19;4994648;28;20050;-63
2022/04/13 18:43:02;;;;;;;3.53;3.20;;;;;;;6.69;53.54;96828.31;4994685;28;20018;-64
2022/04/13 18:45:28;;;;;;;4.10;2.30;;;;;;;6.68;52.27;96836.13;4994726;28;20389;-64
2022/04/13 18:47:54;;;;;;;5.82;2.70;;;;;;;6.71;52.56;96846.47;4994582;28;20019;-64
2022/04/13 18:50:21;;;;;;;2.30;2.10;;;;;;;6.76;52.76;96838.59;4994702;28;20393;-65
2022/04/13 18:52:47;;;;;;;2.13;1.88;;;;;;;6.70;51.54;96839.56;4994597;28;20106;-65
2022/04/13 18:55:12;;;;;;;6.28;2.30;;;;;;;6.66;52.85;96835.31;4994600;28;20433;-64
2022/04/13 18:57:38;;;;;;;8.10;2.00;;;;;;;6.54;53.08;96839.00;4977133;28;20038;-64
2022/04/13 19:00:06;;;;;;;3.20;1.88;;;;;;;6.39;53.54;96832.31;4994574;28;20057;-64
2022/04/13 19:02:33;;;;;;;3.70;2.30;;;;;;;6.34;53.02;96836.72;4994553;28;20062;-64
2022/04/13 19:05:01;;;;;;;4.72;3.60;;;;;;;6.23;53.58;96848.13;4994479;28;20354;-64
2022/04/13 19:07:27;;;;;;;6.10;2.75;;;;;;;6.24;52.79;96846.41;4994178;28;20084;-64
2022/04/13 19:09:52;;;;;;;3.50;2.67;;;;;;;6.38;52.60;96861.78;4994526;28;20038;-64
2022/04/13 19:12:18;;;;;;;4.43;2.22;;;;;;;6.35;53.37;96856.63;4994201;28;20023;-64
2022/04/13 19:14:44;;;;;;;4.13;2.33;;;;;;;6.22;53.41;96861.16;4994214;28;20058;-64
2022/04/13 19:17:11;;;;;;;3.58;2.80;;;;;;;6.25;52.55;96869.78;4994201;28;20076;-65
2022/04/13 19:19:38;;;;;;;5.28;2.35;;;;;;;6.39;53.30;96871.28;4994209;28;20030;-64
2022/04/13 19:22:06;;;;;;;3.83;2.38;;;;;;;6.43;52.30;96876.41;4994185;28;20084;-64
2022/04/13 19:24:32;;;;;;;3.58;3.05;;;;;;;6.46;52.48;96880.72;4994072;28;20037;-64
2022/04/13 19:26:57;;;;;;;10.63;4.30;;;;;;;6.53;53.28;96892.72;4994023;28;20018;-64
2022/04/13 19:29:26;;;;;;;3.63;3.00;;;;;;;6.48;52.72;96883.28;4993970;28;20058;-64
2022/04/13 19:31:55;;;;;;;7.15;2.60;;;;;;;6.31;53.67;96887.00;4993970;28;20023;-64
2022/04/13 19:34:22;;;;;;;3.90;2.20;;;;;;;6.07;54.35;96889.06;4993784;28;20033;-64
2022/04/13 19:36:49;;;;;;;2.83;2.15;;;;;;;5.87;54.79;96891.94;4994074;28;20077;-64
2022/04/13 19:39:16;;;;;;;3.55;2.65;;;;;;;5.69;55.35;96886.94;4993649;28;20054;-64
2022/04/13 19:41:43;;;;;;;4.05;2.25;;;;;;;5.52;55.04;96892.38;4993814;28;20014;-65
2022/04/13 19:44:08;;;;;;;4.03;2.85;;;;;;;5.53;55.42;96894.09;4993799;28;20385;-62
2022/04/13 19:46:34;;;;;;;4.25;2.10;;;;;;;5.57;54.33;96894.91;4993204;28;20030;-65
2022/04/13 19:49:03;;;;;;;4.05;2.63;;;;;;;5.63;55.20;96893.97;4993708;28;20104;-62
2022/04/13 19:51:29;;;;;;;6.70;2.13;;;;;;;5.73;53.33;96889.50;4993724;28;20027;-65
2022/04/13 19:53:55;;;;;;;3.70;2.53;;;;;;;5.76;53.54;96882.56;4993728;28;20044;-62
2022/04/13 19:56:21;;;;;;;3.70;2.58;;;;;;;5.80;54.04;96898.94;4993712;28;20081;-65
2022/04/13 19:58:47;;;;;;;4.18;3.13;;;;;;;5.79;54.73;96887.72;4993589;28;20031;-62
2022/04/13 20:01:13;;;;;;;7.93;2.95;;;;;;;5.68;54.76;96897.34;4993779;28;20141;-65
2022/04/13 20:03:41;;;;;;;3.22;1.85;;;;;;;5.55;55.04;96902.72;4993691;28;20026;-65
2022/04/13 20:06:08;;;;;;;2.80;2.08;;;;;;;5.41;55.26;96896.81;4993448;28;20040;-64
2022/04/13 20:08:34;;;;;;;4.15;2.80;;;;;;;5.39;55.38;96894.22;4993541;28;20023;-65
2022/04/13 20:11:00;;;;;;;6.60;2.08;;;;;;;5.39;55.56;96901.19;4993563;28;20027;-65
2022/04/13 20:13:26;;;;;;;2.88;2.45;;;;;;;5.31;54.39;96902.13;4993603;28;20068;-64
2022/04/13 20:15:52;;;;;;;3.85;3.33;;;;;;;5.34;54.81;96909.00;4993638;28;20093;-64
2022/04/13 20:18:19;;;;;;;5.15;3.63;;;;;;;5.40;56.08;96908.06;4993369;28;20039;-64
2022/04/13 20:20:44;;;;;;;2.88;2.65;;;;;;;5.39;55.80;96909.81;4993295;28;20038;-65
2022/04/13 20:23:10;;;;;;;3.30;2.00;;;;;;;5.33;56.03;96911.63;4993470;28;20018;-65
2022/04/13 20:25:36;;;;;;;3.15;2.58;;;;;;;5.19;56.11;96910.03;4993411;28;20064;-63
2022/04/13 20:28:08;;;;;;;3.13;2.47;;;;;;;5.17;55.62;96916.97;4993377;28;20030;-64
2022/04/13 20:30:39;;;;;;;3.45;2.47;;;;;;;5.28;55.52;96914.25;4993380;28;20030;-64
2022/04/13 20:33:05;;;;;;;4.43;2.97;;;;;;;5.32;55.62;96908.16;4993237;28;20030;-63
2022/04/13 20:35:31;;;;;;;7.22;2.67;;;;;;;5.32;55.25;96905.56;4993292;28;20489;-64
2022/04/13 20:37:58;;;;;;;4.65;2.03;;;;;;;5.29;55.04;96914.25;4993369;28;20496;-63
2022/04/13 20:40:32;;;;;;;5.63;2.10;;;;;;;5.33;54.79;96916.81;4993143;28;20188;-64
2022/04/13 20:42:57;;;;;;;3.47;1.73;;;;;;;5.36;55.16;96916.78;4993238;28;20361;-64
2022/04/13 20:45:23;;;;;;;5.53;3.55;;;;;;;5.22;55.34;96915.19;4993302;28;20025;-64
2022/04/13 20:47:51;;;;;;;4.68;2.85;;;;;;;5.17;55.41;96912.66;4993168;28;20026;-64
2022/04/13 20:50:18;;;;;;;3.13;2.80;;;;;;;5.08;55.06;96909.28;4993197;28;20468;-64
2022/04/13 20:52:43;;;;;;;3.88;3.58;;;;;;;5.02;55.51;96917.97;4993216;28;20029;-64
2022/04/13 20:55:09;;;;;;;2.83;2.58;;;;;;;4.95;56.06;96913.72;4993188;28;20026;-64
2022/04/13 20:57:35;;;;;;;4.18;2.65;;;;;;;4.87;56.22;96922.44;4993113;28;20068;-64
2022/04/13 21:00:02;;;;;;;2.55;2.05;;;;;;;4.80;56.77;96920.78;4996822;28;20357;-64
2022/04/13 21:02:27;;;;;;;2.35;1.77;;;;;;;4.69;56.81;96918.25;4996755;28;20019;-64
2022/04/13 21:04:53;;;;;;;2.40;1.77;;;;;;;4.60;57.00;96923.56;4996652;28;20030;-64
2022/04/13 21:07:18;;;;;;;2.40;2.20;;;;;;;4.42;57.53;96927.97;4996602;28;20035;-64
2022/04/13 21:09:44;;;;;;;7.68;1.90;;;;;;;4.31;57.55;96925.47;4996602;28;20029;-64
2022/04/13 21:12:10;;;;;;;14.13;2.13;;;;;;;4.30;57.86;96931.50;4996587;28;20134;-64
2022/04/13 21:14:36;;;;;;;2.10;1.75;;;;;;;4.17;58.31;96923.84;4996449;28;20037;-64
2022/04/13 21:17:01;;;;;;;3.58;1.88;;;;;;;4.09;58.95;96922.16;4996466;28;20046;-64
2022/04/13 21:19:27;;;;;;;3.53;2.20;;;;;;;3.98;58.79;96928.28;4996385;28;20073;-64
2022/04/13 21:21:53;;;;;;;2.40;1.85;;;;;;;3.98;59.52;96923.09;4996266;28;20027;-64
2022/04/13 21:24:18;;;;;;;2.42;2.03;;;;;;;3.94;59.65;96926.53;4996405;28;20097;-64
2022/04/13 21:26:44;;;;;;;4.90;2.30;;;;;;;3.85;59.02;96921.44;4996216;28;20469;-64
2022/04/13 21:29:12;;;;;;;2.85;2.58;;;;;;;3.87;59.45;96919.69;4996248;28;20034;-64
2022/04/13 21:31:38;;;;;;;3.45;1.92;;;;;;;3.92;59.28;96926.56;4978585;28;20031;-64
2022/04/13 21:34:04;;;;;;;4.25;2.25;;;;;;;3.78;59.62;96929.22;4996136;28;20026;-64
2022/04/13 21:36:29;;;;;;;3.05;2.22;;;;;;;3.66;59.45;96924.09;4996083;28;20397;-64
2022/04/13 21:38:56;;;;;;;2.85;2.25;;;;;;;3.76;59.80;96933.53;4995800;28;20050;-65
2022/04/13 21:41:22;;;;;;;4.55;2.45;;;;;;;3.69;60.26;96934.44;4996150;28;20037;-64
2022/04/13 21:43:47;;;;;;;2.95;2.47;;;;;;;3.77;60.13;96934.41;4995966;28;20018;-64
2022/04/13 21:46:13;;;;;;;5.57;2.75;;;;;;;3.68;59.89;96932.72;4995874;28;20033;-64
2022/04/13 21:48:38;;;;;;;40.13;30.45;;;;;;;3.73;59.98;96928.38;4995739;28;20058;-64
2022/04/13 21:51:04;;;;;;;8.13;5.18;;;;;;;3.76;59.62;96928.38;4995912;28;20061;-64
2022/04/13 21:53:29;;;;;;;3.75;3.20;;;;;;;3.86;59.40;96930.91;4995903;28;20033;-64
2022/04/13 21:55:56;;;;;;;5.20;2.90;;;;;;;3.81;59.42;96923.16;4995842;28;20038;-64
2022/04/13 21:58:22;;;;;;;3.53;2.97;;;;;;;3.76;59.53;96925.78;4995927;28;20018;-64
2022/04/13 22:00:47;;;;;;;3.95;2.03;;;;;;;3.57;59.86;96930.16;4994333;28;20023;-64
2022/04/13 22:03:17;;;;;;;6.85;2.63;;;;;;;3.50;60.35;96918.13;4995618;28;20018;-64
2022/04/13 22:05:43;;;;;;;2.85;2.40;;;;;;;3.37;60.57;96896.63;4995608;28;20031;-64
2022/04/13 22:08:09;;;;;;;2.20;2.00;;;;;;;3.27;60.59;96917.34;4978134;28;20081;-63
2022/04/13 22:10:35;;;;;;;4.07;2.58;;;;;;;3.02;61.28;96924.28;4994652;28;20033;-64
2022/04/13 22:13:01;;;;;;;2.58;2.13;;;;;;;2.99;61.19;96922.59;4995456;28;20015;-64
2022/04/13 22:15:27;;;;;;;6.63;2.30;;;;;;;2.98;61.20;96926.00;4995463;28;20018;-64
2022/04/13 22:17:54;;;;;;;3.03;1.98;;;;;;;2.96;61.46;96926.88;4995272;28;20057;-64
2022/04/13 22:20:20;;;;;;;3.63;2.10;;;;;;;2.94;61.42;96926.00;4995188;28;20030;-64
2022/04/13 22:22:46;;;;;;;5.22;2.28;;;;;;;2.76;61.87;96917.41;4995239;28;20068;-64
2022/04/13 22:25:12;;;;;;;3.17;2.30;;;;;;;2.70;62.52;96920.88;4995057;28;20046;-64
2022/04/13 22:27:37;;;;;;;4.15;2.55;;;;;;;2.59;62.60;96909.69;4995192;28;20030;-64
2022/04/13 22:30:04;;;;;;;5.65;2.50;;;;;;;2.44;63.27;96919.13;4995053;28;20085;-64
2022/04/13 22:32:30;;;;;;;3.53;2.65;;;;;;;2.22;63.68;96913.09;4994896;28;20511;-65
2022/04/13 22:34:56;;;;;;;3.30;2.30;;;;;;;2.06;64.23;96907.06;4994947;28;20027;-64
2022/04/13 22:37:21;;;;;;;3.38;2.35;;;;;;;2.01;64.78;96909.63;4994871;28;20113;-64
2022/04/13 22:39:47;;;;;;;9.07;2.20;;;;;;;1.93;64.95;96922.53;4994470;28;20041;-64
2022/04/13 22:42:16;;;;;;;3.60;2.22;;;;;;;1.99;64.83;96922.53;4994830;28;20023;-64
2022/04/13 22:44:42;;;;;;;3.55;2.63;;;;;;;2.05;64.24;96924.28;4994752;28;20022;-64
2022/04/13 22:47:08;;;;;;;4.85;2.10;;;;;;;2.09;64.04;96917.41;4994656;28;20366;-64
2022/04/13 22:49:37;;;;;;;2.63;2.25;;;;;;;2.25;64.66;96931.19;4994626;28;20033;-64
2022/04/13 22:52:04;;;;;;;5.25;2.65;;;;;;;2.34;63.67;96925.16;4994606;28;20022;-65
2022/04/13 22:54:29;;;;;;;5.05;2.22;;;;;;;2.43;62.87;96926.88;4994514;28;20022;-64
2022/04/13 22:56:55;;;;;;;2.50;2.13;;;;;;;2.45;62.80;96931.22;4994518;28;20022;-64
2022/04/13 22:59:21;;;;;;;3.05;2.10;;;;;;;2.45;62.59;96936.38;4994405;28;20030;-65
2022/04/13 23:01:47;;;;;;;7.03;2.38;;;;;;;2.49;62.67;96934.66;4994526;28;20023;-64
2022/04/13 23:04:13;;;;;;;5.25;2.15;;;;;;;2.47;62.79;96929.47;4994459;28;20511;-64
2022/04/13 23:06:38;;;;;;;2.30;2.00;;;;;;;2.41;62.68;96926.91;4994292;28;20538;-64
2022/04/13 23:09:05;;;;;;;2.97;1.90;;;;;;;2.39;63.09;96926.91;4994102;28;20030;-64
2022/04/13 23:11:31;;;;;;;4.78;1.90;;;;;;;2.33;63.48;96919.16;4994467;28;20026;-64
2022/04/13 23:13:57;;;;;;;2.67;1.88;;;;;;;2.29;62.67;96932.94;4994334;28;20072;-64
2022/04/13 23:16:24;;;;;;;2.88;2.20;;;;;;;2.20;62.65;96927.75;4994262;28;20165;-64
2022/04/13 23:18:50;;;;;;;3.97;2.47;;;;;;;2.12;62.69;96923.44;4994158;28;20027;-63
2022/04/13 23:21:16;;;;;;;6.70;2.33;;;;;;;2.12;63.02;96932.88;4993484;28;20045;-64
2022/04/13 23:23:41;;;;;;;5.45;2.00;;;;;;;2.15;63.25;96932.91;4993734;28;20030;-64
2022/04/13 23:26:07;;;;;;;2.67;2.00;;;;;;;2.24;63.55;96942.38;4994229;28;20038;-64
2022/04/13 23:28:33;;;;;;;2.80;2.00;;;;;;;2.22;64.06;96942.38;4994035;28;20134;-64
2022/04/13 23:30:58;;;;;;;2.55;2.00;;;;;;;2.17;63.71;96933.78;4993934;28;20105;-63
2022/04/13 23:33:24;;;;;;;5.00;2.20;;;;;;;2.22;63.60;96934.63;4993982;28;20023;-64
2022/04/13 23:35:49;;;;;;;2.28;2.00;;;;;;;2.23;63.46;96933.75;4993878;28;20028;-64
2022/04/13 23:38:15;;;;;;;2.53;1.98;;;;;;;2.16;63.71;96938.94;4993824;28;20042;-64
2022/04/13 23:40:40;;;;;;;3.45;2.33;;;;;;;2.00;63.25;96932.00;4993607;28;20050;-64
2022/04/13 23:43:06;;;;;;;2.25;1.92;;;;;;;1.78;64.29;96938.84;4993926;28;20026;-64
2022/04/13 23:45:33;;;;;;;3.20;2.03;;;;;;;1.71;64.90;96935.34;4993820;28;20357;-64
2022/04/13 23:47:59;;;;;;;3.58;2.55;;;;;;;1.58;65.13;96931.00;4993691;28;20041;-64
2022/04/13 23:50:25;;;;;;;9.57;2.83;;;;;;;1.49;65.38;96935.28;4993713;28;20026;-64
2022/04/13 23:52:50;;;;;;;3.50;2.67;;;;;;;1.50;65.97;96934.41;4993722;28;20519;-63
2022/04/13 23:55:16;;;;;;;2.40;2.20;;;;;;;1.57;65.85;96934.44;4993648;28;20019;-64
2022/04/13 23:57:41;;;;;;;3.20;2.13;;;;;;;1.58;65.47;96939.63;4993556;28;20080;-64
